Time;durP1;ratioP1;P1;durP2;ratioP2;P2;SDS_P1;SDS_P2;PMS_P1;PMS_P2;Temp;Humidity;BMP_temperature;BMP_pressure;BME280_temperature;BME280_humidity;BME280_pressure;Samples;Min_cycle;Max_cycle;Signal;HPM_P1;HPM_P2
2021/12/12 00:02:44;;;;;;;31.30;18.12;;;;;;;6.15;100.00;100584.72;1726019;82;21204;-85
2021/12/12 00:04:58;;;;;;;26.10;15.28;;;;;;;6.12;100.00;100596.09;1723785;82;21058;-86
2021/12/12 00:07:29;;;;;;;27.22;16.07;;;;;;;6.08;100.00;100597.86;1717662;82;21054;-87
2021/12/12 00:10:03;;;;;;;31.60;18.85;;;;;;;6.08;100.00;100592.63;1725610;82;21047;-85
2021/12/12 00:12:31;;;;;;;26.62;16.93;;;;;;;6.05;100.00;100595.28;1720855;82;21105;-85
2021/12/12 00:14:57;;;;;;;30.50;18.20;;;;;;;6.08;100.00;100587.40;1657714;85;21148;-84
2021/12/12 00:17:26;;;;;;;29.67;16.42;;;;;;;6.11;100.00;100590.86;1659046;85;21093;-85
2021/12/12 00:19:53;;;;;;;27.63;15.77;;;;;;;6.07;100.00;100596.14;1679461;84;21403;-82
2021/12/12 00:22:24;;;;;;;23.77;16.00;;;;;;;6.07;100.00;100600.06;1681666;84;21057;-81
2021/12/12 00:24:50;;;;;;;34.85;18.35;;;;;;;6.04;100.00;100594.84;1681332;84;21528;-82
2021/12/12 00:27:16;;;;;;;37.35;19.87;;;;;;;6.07;100.00;100596.14;1688268;83;21763;-82
2021/12/12 00:29:43;;;;;;;34.20;19.37;;;;;;;6.07;100.00;100583.06;1679869;84;20983;-83
2021/12/12 00:32:13;;;;;;;25.05;15.65;;;;;;;6.09;100.00;100580.41;1668077;80;20971;-82
2021/12/12 00:34:48;;;;;;;27.15;16.27;;;;;;;6.09;100.00;100596.09;1685258;79;21101;-82
2021/12/12 00:37:14;;;;;;;27.98;17.02;;;;;;;6.11;100.00;100605.25;1680697;79;21050;-82
2021/12/12 00:39:45;;;;;;;23.32;14.50;;;;;;;6.07;100.00;100600.48;1663094;85;21125;-83
2021/12/12 00:42:17;;;;;;;23.40;14.83;;;;;;;6.06;100.00;100611.39;1646107;86;21057;-79
2021/12/12 00:44:48;;;;;;;31.40;17.75;;;;;;;6.00;100.00;100604.91;1664889;85;20995;-86
2021/12/12 00:47:17;;;;;;;26.77;15.83;;;;;;;6.00;100.00;100607.52;1647735;85;21054;-81
2021/12/12 00:49:44;;;;;;;26.02;16.05;;;;;;;5.97;100.00;100610.17;1665661;85;21086;-82
2021/12/12 00:52:14;;;;;;;27.95;17.07;;;;;;;5.96;100.00;100620.64;1683511;84;21176;-79
2021/12/12 00:54:40;;;;;;;24.43;14.87;;;;;;;5.91;100.00;100621.95;1675308;85;21076;-78
2021/12/12 00:57:12;;;;;;;30.23;16.48;;;;;;;5.90;100.00;100620.23;1691362;84;21609;-80
2021/12/12 00:59:40;;;;;;;24.70;15.10;;;;;;;5.88;100.00;100618.08;1684057;84;21152;-78
2021/12/12 01:02:09;;;;;;;26.62;15.65;;;;;;;5.88;100.00;100618.08;1699980;84;21144;-80
2021/12/12 01:04:41;;;;;;;28.15;17.82;;;;;;;5.88;100.00;100612.85;1723093;82;21109;-81
2021/12/12 01:07:15;;;;;;;25.85;16.07;;;;;;;5.91;100.00;100615.42;1735346;82;21474;-82
2021/12/12 01:09:53;;;;;;;33.40;19.10;;;;;;;5.93;100.00;100613.66;1722389;82;21568;-81
2021/12/12 01:12:24;;;;;;;28.30;16.67;;;;;;;5.95;100.00;100614.55;1722071;82;21011;-81
2021/12/12 01:14:57;;;;;;;20.97;12.35;;;;;;;5.98;100.00;100611.92;1712606;82;21112;-79
2021/12/12 01:17:38;;;;;;;29.12;17.02;;;;;;;6.00;100.00;100614.05;1712029;83;21139;-79
2021/12/12 01:20:13;;;;;;;23.60;14.60;;;;;;;6.03;100.00;100615.35;1728386;82;21098;-82
2021/12/12 01:22:40;;;;;;;18.95;13.13;;;;;;;6.04;100.00;100622.30;1719964;82;21069;-81
2021/12/12 01:25:18;;;;;;;22.85;14.83;;;;;;;6.04;100.00;100619.69;1712869;82;21818;-83
2021/12/12 01:27:46;;;;;;;21.42;12.93;;;;;;;6.05;100.00;100627.97;1729590;82;21073;-84
2021/12/12 01:30:14;;;;;;;20.52;12.55;;;;;;;6.02;100.00;100635.83;1724829;82;21883;-84
2021/12/12 01:32:41;;;;;;;21.17;13.28;;;;;;;5.98;100.00;100632.84;1666489;85;21123;-83
2021/12/12 01:35:15;;;;;;;21.62;12.98;;;;;;;5.99;100.00;100641.09;1681460;84;21144;-82
2021/12/12 01:37:40;;;;;;;27.05;16.87;;;;;;;5.96;100.00;100635.02;1675014;84;28170;-81
2021/12/12 01:40:17;;;;;;;27.93;16.35;;;;;;;5.95;100.00;100642.45;1682122;84;21196;-82
2021/12/12 01:43:00;;;;;;;25.75;15.05;;;;;;;5.90;100.00;100639.84;1674338;84;21125;-81
2021/12/12 01:45:31;;;;;;;26.27;16.70;;;;;;;5.88;100.00;100641.61;1681572;84;21097;-80
2021/12/12 01:48:07;;;;;;;27.05;15.30;;;;;;;5.84;100.00;100645.12;1678790;84;21133;-81
2021/12/12 01:50:45;;;;;;;25.97;16.12;;;;;;;5.85;100.00;100637.73;1656292;84;21540;-83
2021/12/12 01:53:14;;;;;;;36.30;18.70;;;;;;;5.86;100.00;100645.98;1686758;83;21088;-80
2021/12/12 01:55:58;;;;;;;32.25;17.85;;;;;;;5.89;100.00;100651.20;1686873;83;21151;-82
2021/12/12 01:58:27;;;;;;;26.90;16.27;;;;;;;5.91;100.00;100638.09;1665601;85;21075;-84
2021/12/12 02:00:59;;;;;;;31.97;16.82;;;;;;;5.92;100.00;100651.16;1669460;85;21064;-87
2021/12/12 02:03:30;;;;;;;25.32;13.88;;;;;;;5.93;100.00;100641.11;1660867;85;21076;-87
2021/12/12 02:05:56;;;;;;;22.20;13.58;;;;;;;5.97;100.00;100641.55;1690889;83;21564;-84
2021/12/12 02:08:23;;;;;;;27.37;16.02;;;;;;;6.02;100.00;100652.82;1684560;84;21129;-81
2021/12/12 02:10:54;;;;;;;25.75;14.58;;;;;;;6.03;100.00;100657.19;1664404;85;21112;-82
2021/12/12 02:13:23;;;;;;;32.80;16.55;;;;;;;6.02;100.00;100650.20;1686823;84;21140;-83
2021/12/12 02:15:54;;;;;;;21.68;13.80;;;;;;;6.07;100.00;100654.97;1668061;85;21136;-84
2021/12/12 02:18:30;;;;;;;32.88;18.87;;;;;;;6.06;100.00;100649.30;1664190;85;21127;-83
2021/12/12 02:21:13;;;;;;;29.57;15.18;;;;;;;6.09;100.00;100653.63;1665717;85;21167;-83
2021/12/12 02:24:03;;;;;;;27.37;16.30;;;;;;;6.08;100.00;100642.31;1691127;83;20981;-82
2021/12/12 02:37:13;;;;;;;26.02;14.25;;;;;;;6.16;100.00;100668.81;1676002;85;21087;-81
2021/12/12 02:39:40;;;;;;;27.62;15.38;;;;;;;6.17;100.00;100671.88;1687287;84;21559;-82
2021/12/12 02:42:13;;;;;;;28.02;14.65;;;;;;;6.15;100.00;100670.58;1696881;83;21088;-83
2021/12/12 02:44:42;;;;;;;27.37;14.10;;;;;;;6.16;100.00;100666.20;1690590;83;21579;-85
2021/12/12 02:47:14;;;;;;;28.07;14.83;;;;;;;6.17;100.00;100666.65;1687774;84;21457;-84
2021/12/12 02:50:08;;;;;;;35.20;16.77;;;;;;;6.15;100.00;100669.72;1697380;83;21062;-81
2021/12/12 02:52:30;;;;;;;28.40;15.58;;;;;;;6.12;100.00;100678.88;1686347;83;21092;-83
2021/12/12 02:55:03;;;;;;;32.17;15.53;;;;;;;6.13;100.00;100672.78;1715741;82;21538;-85
2021/12/12 02:57:30;;;;;;;31.30;15.10;;;;;;;6.13;100.00;100668.41;1720914;82;21062;-85
2021/12/12 02:59:58;;;;;;;32.17;17.27;;;;;;;6.15;100.00;100668.41;1712681;82;21115;-87
2021/12/12 03:02:30;;;;;;;37.88;17.70;;;;;;;6.15;100.00;100665.80;1720287;82;21042;-85
2021/12/12 03:05:00;;;;;;;41.63;19.15;;;;;;;6.13;100.00;100667.55;1718863;82;21756;-80
2021/12/12 03:07:26;;;;;;;43.73;20.55;;;;;;;6.13;100.00;100672.34;1708903;82;21057;-85
2021/12/12 03:09:56;;;;;;;37.63;19.12;;;;;;;6.12;100.00;100674.95;1725169;82;21777;-81
2021/12/12 03:12:31;;;;;;;44.75;20.60;;;;;;;6.13;100.00;100675.40;1719988;82;21093;-81
2021/12/12 03:15:09;;;;;;;45.35;20.65;;;;;;;6.12;100.00;100668.42;1716611;82;21545;-82
2021/12/12 03:17:37;;;;;;;48.42;21.93;;;;;;;6.12;100.00;100676.27;1718240;82;21046;-82
2021/12/12 03:20:10;;;;;;;51.02;22.77;;;;;;;6.13;100.00;100674.95;1718367;82;21010;-81
2021/12/12 03:22:37;;;;;;;43.23;19.27;;;;;;;6.13;100.00;100680.63;1719165;82;20998;-83
2021/12/12 03:25:04;;;;;;;47.80;21.77;;;;;;;6.11;100.00;100688.92;1718628;82;22148;-81
2021/12/12 03:27:32;;;;;;;43.25;19.67;;;;;;;6.07;100.00;100682.43;1722180;82;21097;-80
2021/12/12 03:29:59;;;;;;;46.18;22.75;;;;;;;6.01;100.00;100685.09;1717909;82;21142;-81
2021/12/12 03:32:26;;;;;;;39.13;20.57;;;;;;;5.99;100.00;100684.23;1717921;82;21573;-81
2021/12/12 03:34:56;;;;;;;49.50;20.80;;;;;;;5.96;100.00;100692.53;1717848;82;21136;-82
2021/12/12 03:37:25;;;;;;;44.45;21.97;;;;;;;5.92;100.00;100697.36;1721970;82;21093;-82
2021/12/12 03:39:54;;;;;;;48.10;22.15;;;;;;;5.88;100.00;100703.03;1717741;82;21081;-82
2021/12/12 03:42:24;;;;;;;45.88;23.40;;;;;;;5.82;100.00;100697.85;1719185;82;21027;-82
2021/12/12 03:44:52;;;;;;;44.27;20.70;;;;;;;5.76;100.00;100703.15;1658973;85;21077;-81
2021/12/12 03:47:23;;;;;;;52.00;24.12;;;;;;;5.68;100.00;100709.31;1652904;85;21674;-82
2021/12/12 03:49:50;;;;;;;41.75;21.68;;;;;;;5.61;100.00;100710.23;1681122;84;21887;-82
2021/12/12 03:52:18;;;;;;;53.85;22.98;;;;;;;5.58;100.00;100712.84;1716248;81;21429;-82
2021/12/12 03:54:45;;;;;;;39.85;20.85;;;;;;;5.57;100.00;100712.88;1655953;85;21034;-81
2021/12/12 03:57:12;;;;;;;43.10;21.85;;;;;;;5.51;100.00;100707.25;1683339;84;21164;-81
2021/12/12 03:59:39;;;;;;;42.45;22.10;;;;;;;5.48;100.00;100703.80;1681149;84;21645;-81
2021/12/12 04:02:06;;;;;;;41.98;21.93;;;;;;;5.47;100.00;100710.75;1656046;85;21216;-83
2021/12/12 04:04:37;;;;;;;46.80;21.62;;;;;;;5.45;100.00;100714.70;1658075;85;21116;-83
2021/12/12 04:07:14;;;;;;;37.03;19.02;;;;;;;5.43;100.00;100716.89;1655092;85;21544;-83
2021/12/12 04:09:41;;;;;;;44.05;22.25;;;;;;;5.42;100.00;100710.78;1654568;85;21097;-83
2021/12/12 04:12:11;;;;;;;42.25;21.27;;;;;;;5.39;100.00;100716.48;1647433;85;21064;-82
2021/12/12 04:14:39;;;;;;;47.23;22.27;;;;;;;5.41;100.00;100721.26;1666733;85;21859;-81
2021/12/12 04:17:13;;;;;;;41.53;21.95;;;;;;;5.39;100.00;100725.63;1663559;85;21116;-81
2021/12/12 04:19:42;;;;;;;39.85;19.48;;;;;;;5.40;100.00;100724.73;1646811;85;21100;-84
2021/12/12 04:22:09;;;;;;;39.92;21.42;;;;;;;5.41;100.00;100730.41;1648021;85;21081;-87
2021/12/12 04:24:39;;;;;;;38.42;19.82;;;;;;;5.40;100.00;100737.80;1647429;85;21057;-87
2021/12/12 04:27:06;;;;;;;36.58;18.70;;;;;;;5.38;100.00;100741.74;1659452;85;21833;-87
2021/12/12 04:29:40;;;;;;;40.43;21.12;;;;;;;5.40;100.00;100743.02;1661897;85;21635;-83
2021/12/12 04:32:10;;;;;;;48.20;22.45;;;;;;;5.44;100.00;100740.82;1652702;85;21544;-87
2021/12/12 04:34:40;;;;;;;;;;;;;;;5.45;100.00;100747.77;1682868;85;21126;-82
2021/12/12 04:37:07;;;;;;;36.03;17.27;;;;;;;5.45;100.00;100749.07;1669832;85;20286;-81
2021/12/12 04:39:38;;;;;;;47.50;22.73;;;;;;;5.41;100.00;100743.02;1669585;85;21150;-82
2021/12/12 04:42:12;;;;;;;52.62;23.07;;;;;;;5.40;100.00;100742.57;1670536;85;22887;-74
2021/12/12 04:44:40;;;;;;;52.05;23.60;;;;;;;5.37;100.00;100745.66;1652538;86;21040;-72
2021/12/12 04:50:06;;;;;;;51.10;24.50;;;;;;;5.30;100.00;100734.38;1677001;84;21077;-73
2021/12/12 04:52:42;;;;;;;63.48;27.48;;;;;;;5.28;100.00;100745.71;1680498;83;21177;-73
2021/12/12 04:55:29;;;;;;;53.20;24.02;;;;;;;5.24;100.00;100737.90;1662272;85;21658;-74
2021/12/12 04:58:16;;;;;;;60.52;25.52;;;;;;;5.23;100.00;100736.15;1697253;84;21107;-73
2021/12/12 05:00:54;;;;;;;56.75;23.50;;;;;;;5.24;100.00;100737.01;1728170;82;21049;-72
2021/12/12 05:03:30;;;;;;;52.38;24.45;;;;;;;5.22;100.00;100734.43;1728267;82;21521;-77
2021/12/12 05:06:16;;;;;;;57.98;23.95;;;;;;;5.19;100.00;100738.34;1722967;82;21173;-76
2021/12/12 05:08:57;;;;;;;64.87;27.40;;;;;;;5.19;100.00;100736.17;1666060;82;21120;-77
2021/12/12 05:11:32;;;;;;;52.98;22.37;;;;;;;5.13;100.00;100729.25;1727542;82;25677;-72
2021/12/12 05:14:05;;;;;;;48.00;22.82;;;;;;;5.08;100.00;100737.97;1710923;82;21092;-71
2021/12/12 05:16:38;;;;;;;45.38;21.15;;;;;;;4.98;100.00;100733.23;1723712;82;20986;-72
2021/12/12 05:19:12;;;;;;;49.38;22.98;;;;;;;4.90;100.00;100725.86;1723610;82;21863;-71
2021/12/12 05:21:50;;;;;;;46.00;21.07;;;;;;;4.83;100.00;100740.67;1697651;82;21044;-73
2021/12/12 05:24:16;;;;;;;39.00;17.10;;;;;;;4.76;100.00;100747.68;1693921;82;21497;-75
2021/12/12 05:27:00;;;;;;;52.33;21.33;;;;;;;4.69;100.00;100756.81;1725187;82;21061;-74
2021/12/12 05:29:38;;;;;;;45.80;19.75;;;;;;;4.63;100.00;100746.84;1727742;82;21618;-74
2021/12/12 05:32:08;;;;;;;39.75;19.65;;;;;;;4.59;100.00;100745.55;1728296;82;21528;-75
2021/12/12 05:34:36;;;;;;;45.40;19.60;;;;;;;4.56;100.00;100754.70;1720280;82;21116;-73
2021/12/12 05:37:04;;;;;;;41.25;18.87;;;;;;;4.54;100.00;100743.39;1727442;82;21365;-72
2021/12/12 05:39:30;;;;;;;34.03;15.63;;;;;;;4.53;100.00;100746.86;1729514;82;21655;-74
2021/12/12 05:41:58;;;;;;;36.88;15.18;;;;;;;4.52;100.00;100739.91;1666226;85;21053;-74
2021/12/12 05:44:25;;;;;;;39.03;17.98;;;;;;;4.53;100.00;100754.27;1676762;84;21151;-71
2021/12/12 05:46:58;;;;;;;32.45;17.05;;;;;;;4.55;100.00;100759.02;1692865;84;21089;-72
2021/12/12 05:49:25;;;;;;;47.58;18.67;;;;;;;4.50;100.00;100762.52;1694540;84;21090;-71
2021/12/12 05:51:51;;;;;;;36.23;16.93;;;;;;;4.48;100.00;100762.95;1694102;84;21110;-71
2021/12/12 05:54:18;;;;;;;36.93;18.25;;;;;;;4.46;100.00;100769.91;1685665;84;21042;-72
2021/12/12 05:56:46;;;;;;;41.77;17.95;;;;;;;4.49;100.00;100773.84;1677603;84;21115;-73
2021/12/12 05:59:14;;;;;;;40.03;17.85;;;;;;;4.49;100.00;100772.54;1675789;84;21581;-71
2021/12/12 06:01:42;;;;;;;42.25;18.15;;;;;;;4.49;100.00;100781.67;1679534;84;21400;-72
2021/12/12 06:04:09;;;;;;;41.13;20.10;;;;;;;4.46;100.00;100785.12;1681496;84;21104;-72
2021/12/12 06:06:40;;;;;;;42.00;18.00;;;;;;;4.43;100.00;100794.70;1644571;85;21172;-70
2021/12/12 06:09:09;;;;;;;43.52;19.32;;;;;;;4.37;100.00;100802.98;1683589;84;21124;-71
2021/12/12 06:11:38;;;;;;;37.33;19.10;;;;;;;4.33;100.00;100799.93;1680675;84;21080;-72
2021/12/12 06:14:05;;;;;;;38.08;18.45;;;;;;;4.30;100.00;100797.34;1655809;85;21113;-71
2021/12/12 06:16:32;;;;;;;42.50;18.40;;;;;;;4.26;100.00;100802.11;1657509;85;21560;-73
2021/12/12 06:19:20;;;;;;;38.75;17.30;;;;;;;4.26;100.00;100808.62;1656167;85;21101;-72
2021/12/12 06:21:53;;;;;;;38.95;18.48;;;;;;;4.24;100.00;100806.89;1673410;85;21565;-71
2021/12/12 06:24:20;;;;;;;40.43;17.90;;;;;;;4.20;100.00;100824.27;1671315;85;21137;-72
2021/12/12 06:26:47;;;;;;;33.05;16.07;;;;;;;4.19;100.00;100830.36;1657096;85;21056;-71
2021/12/12 06:29:16;;;;;;;33.73;16.97;;;;;;;4.17;100.00;100842.08;1673333;85;21085;-72
2021/12/12 06:31:45;;;;;;;32.17;15.83;;;;;;;4.12;100.00;100837.30;1652335;85;21089;-70
2021/12/12 06:34:12;;;;;;;33.60;15.88;;;;;;;4.12;100.00;100839.91;1674494;85;21153;-72
2021/12/12 06:36:39;;;;;;;44.27;18.42;;;;;;;4.11;100.00;100850.33;1662151;84;21136;-72
2021/12/12 06:39:08;;;;;;;34.58;15.93;;;;;;;4.05;100.00;100845.99;1716753;82;21118;-73
2021/12/12 06:41:35;;;;;;;35.17;16.90;;;;;;;4.02;100.00;100839.89;1716219;82;21077;-72
2021/12/12 06:44:06;;;;;;;36.98;16.05;;;;;;;3.97;100.00;100839.45;1723782;82;21581;-70
2021/12/12 06:46:34;;;;;;;40.83;18.00;;;;;;;3.95;100.00;100833.36;1706009;82;21133;-72
2021/12/12 06:49:01;;;;;;;33.38;16.25;;;;;;;3.91;100.00;100840.77;1660968;85;21037;-71
2021/12/12 06:51:27;;;;;;;31.65;15.38;;;;;;;3.88;100.00;100840.73;1636396;84;21820;-72
2021/12/12 06:53:54;;;;;;;37.50;17.42;;;;;;;3.85;100.00;100844.65;1675516;84;21057;-72
2021/12/12 06:56:21;;;;;;;36.05;16.93;;;;;;;3.81;100.00;100842.89;1687142;84;21082;-73
2021/12/12 06:58:50;;;;;;;39.45;17.32;;;;;;;3.79;100.00;100850.70;1690714;84;21571;-72
2021/12/12 07:01:21;;;;;;;42.50;18.17;;;;;;;3.75;100.00;100858.09;1668635;84;21068;-74
2021/12/12 07:03:48;;;;;;;46.05;20.57;;;;;;;3.71;100.00;100860.69;1698537;83;21310;-73
2021/12/12 07:06:20;;;;;;;44.50;19.80;;;;;;;3.68;100.00;100869.78;1686559;84;21065;-74
2021/12/12 07:08:46;;;;;;;45.65;18.98;;;;;;;3.65;100.00;100865.87;1686586;84;21154;-73
2021/12/12 07:11:21;;;;;;;53.52;22.25;;;;;;;3.64;100.00;100875.87;1683220;84;22046;-74
2021/12/12 07:13:48;;;;;;;80.05;24.12;;;;;;;3.59;100.00;100871.95;1683907;84;21124;-73
2021/12/12 07:16:15;;;;;;;68.45;24.75;;;;;;;3.57;100.00;100874.53;1689164;84;21502;-73
2021/12/12 07:18:42;;;;;;;142.20;32.80;;;;;;;3.57;100.00;100866.72;1674093;84;21087;-75
2021/12/12 07:21:13;;;;;;;90.47;27.60;;;;;;;3.58;100.00;100872.80;1690156;83;21095;-73
2021/12/12 07:23:43;;;;;;;63.33;24.55;;;;;;;3.53;100.00;100874.52;1687346;84;21153;-74
2021/12/12 07:26:12;;;;;;;69.00;25.60;;;;;;;3.47;100.00;100870.14;1690268;83;21084;-73
2021/12/12 07:28:39;;;;;;;50.85;22.25;;;;;;;3.46;100.00;100868.85;1712289;83;21117;-74
2021/12/12 07:31:11;;;;;;;56.55;23.05;;;;;;;3.45;100.00;100858.88;1707768;83;21538;-73
2021/12/12 07:33:40;;;;;;;55.12;23.20;;;;;;;3.47;100.00;100864.93;1673086;84;21081;-73
2021/12/12 07:36:09;;;;;;;62.73;25.90;;;;;;;3.47;100.00;100862.33;1695340;84;21957;-74
2021/12/12 07:38:36;;;;;;;59.45;23.47;;;;;;;3.46;100.00;100868.41;1676756;84;21528;-76
2021/12/12 07:41:05;;;;;;;57.70;21.90;;;;;;;3.45;100.00;100869.29;1684553;84;21042;-74
2021/12/12 07:43:32;;;;;;;60.55;23.52;;;;;;;3.45;100.00;100869.29;1691860;84;21124;-74
2021/12/12 07:46:00;;;;;;;69.97;26.33;;;;;;;3.45;100.00;100873.60;1686484;84;21080;-74
2021/12/12 07:48:27;;;;;;;65.83;25.68;;;;;;;3.45;100.00;100864.48;1673979;84;21787;-73
2021/12/12 07:50:53;;;;;;;73.17;26.95;;;;;;;3.47;100.00;100870.14;1686526;84;21108;-74
2021/12/12 07:53:20;;;;;;;72.82;26.15;;;;;;;3.40;100.00;100859.27;1687711;84;21068;-74
2021/12/12 07:55:47;;;;;;;62.30;24.27;;;;;;;3.53;100.00;100883.63;1738684;81;21096;-73
2021/12/12 07:58:16;;;;;;;169.32;41.45;;;;;;;3.47;100.00;100910.50;1667297;85;21594;-74
2021/12/12 08:00:45;;;;;;;73.60;25.27;;;;;;;3.35;100.00;100890.92;1732443;82;21601;-73
2021/12/12 08:03:17;;;;;;;56.77;25.35;;;;;;;3.31;100.00;100908.28;1722147;82;21056;-71
2021/12/12 08:05:43;;;;;;;62.40;26.93;;;;;;;3.24;100.00;100913.43;1713816;82;21375;-73
2021/12/12 08:08:12;;;;;;;57.65;25.43;;;;;;;3.18;100.00;100904.30;1731713;82;21123;-73
2021/12/12 08:10:40;;;;;;;65.95;27.15;;;;;;;3.18;100.00;100903.87;1730616;82;21437;-73
2021/12/12 08:13:08;;;;;;;58.48;25.77;;;;;;;3.15;100.00;100902.13;1728661;82;21745;-74
2021/12/12 08:15:35;;;;;;;51.10;23.33;;;;;;;3.16;100.00;100896.48;1709717;82;21584;-73
2021/12/12 08:18:02;;;;;;;54.05;24.60;;;;;;;3.10;100.00;100886.89;1730631;82;21664;-73
2021/12/12 08:20:30;;;;;;;50.90;23.62;;;;;;;3.08;100.00;100897.75;1735037;82;21006;-73
2021/12/12 08:22:57;;;;;;;50.55;23.70;;;;;;;3.10;100.00;100895.13;1730124;82;21062;-74
2021/12/12 08:25:25;;;;;;;49.18;23.70;;;;;;;3.09;100.00;100891.66;1670279;85;21519;-75
2021/12/12 08:27:54;;;;;;;44.63;22.22;;;;;;;3.08;100.00;100906.86;1716273;82;21038;-75
2021/12/12 08:30:20;;;;;;;48.90;22.58;;;;;;;3.04;100.00;100905.09;1736865;82;21040;-75
2021/12/12 08:32:49;;;;;;;46.80;19.87;;;;;;;3.06;100.00;100903.77;1666040;85;21079;-72
2021/12/12 08:35:18;;;;;;;58.83;25.02;;;;;;;3.03;100.00;100902.03;1729765;82;21139;-73
2021/12/12 08:37:45;;;;;;;52.33;23.95;;;;;;;3.04;100.00;100907.69;1668427;85;21954;-73
2021/12/12 08:40:18;;;;;;;49.55;22.55;;;;;;;2.99;100.00;100902.89;1730771;82;21077;-74
2021/12/12 08:42:47;;;;;;;53.42;23.27;;;;;;;3.02;100.00;100914.61;1729074;82;21125;-74
2021/12/12 08:45:17;;;;;;;46.10;22.73;;;;;;;2.97;100.00;100915.02;1730871;81;22141;-74
2021/12/12 08:47:44;;;;;;;48.33;23.38;;;;;;;2.93;100.00;100900.24;1730522;82;21052;-74
2021/12/12 08:50:13;;;;;;;44.88;21.57;;;;;;;2.90;100.00;100911.50;1731330;82;21128;-74
2021/12/12 08:52:44;;;;;;;38.70;19.15;;;;;;;2.91;100.00;100905.86;1712858;82;25804;-73
2021/12/12 08:55:19;;;;;;;32.25;17.25;;;;;;;2.90;100.00;100909.34;1741815;82;21054;-74
2021/12/12 08:57:58;;;;;;;43.75;19.20;;;;;;;2.88;100.00;100907.16;1664444;85;21077;-74
2021/12/12 09:00:22;;;;;;;48.98;21.25;;;;;;;2.80;100.00;100915.32;1733669;82;21068;-73
2021/12/12 09:02:51;;;;;;;46.15;22.98;;;;;;;2.76;100.00;100904.44;1735047;82;21217;-72
2021/12/12 09:05:23;;;;;;;40.63;18.95;;;;;;;2.70;100.00;100911.34;1727134;82;21104;-73
2021/12/12 09:07:51;;;;;;;59.30;25.12;;;;;;;2.63;100.00;100910.86;1734930;82;21057;-74
2021/12/12 09:10:35;;;;;;;67.22;25.85;;;;;;;2.61;100.00;100906.08;1667269;85;21132;-72
2021/12/12 09:13:08;;;;;;;44.35;21.02;;;;;;;2.61;100.00;100902.17;1710617;82;21555;-72
2021/12/12 09:15:58;;;;;;;44.90;20.80;;;;;;;2.57;100.00;100906.04;1731571;82;21125;-73
2021/12/12 09:18:34;;;;;;;40.55;18.00;;;;;;;2.55;100.00;100912.52;1731293;82;21043;-72
2021/12/12 09:21:13;;;;;;;44.80;20.35;;;;;;;2.44;100.00;100911.55;1733215;82;21169;-72
2021/12/12 09:23:48;;;;;;;52.03;22.58;;;;;;;2.44;100.00;100911.55;1737013;82;21057;-73
2021/12/12 09:26:19;;;;;;;57.17;25.12;;;;;;;2.41;100.00;100905.03;1734205;82;21536;-72
2021/12/12 09:29:20;;;;;;;40.25;19.82;;;;;;;2.39;100.00;100908.05;1732473;82;21104;-73
2021/12/12 09:32:06;;;;;;;60.50;25.50;;;;;;;2.39;100.00;100910.65;1731853;82;21556;-72
2021/12/12 09:34:41;;;;;;;37.85;18.90;;;;;;;2.40;100.00;100905.91;1658131;85;21124;-74
2021/12/12 09:37:28;;;;;;;38.40;19.57;;;;;;;2.42;100.00;100893.80;1732513;82;21107;-72
2021/12/12 09:40:10;;;;;;;41.02;20.45;;;;;;;2.42;100.00;100893.80;1733541;82;21057;-73
2021/12/12 09:43:01;;;;;;;33.80;16.32;;;;;;;2.43;100.00;100896.39;1730725;82;21547;-72
2021/12/12 09:45:57;;;;;;;35.95;18.37;;;;;;;2.43;100.00;100905.92;1734112;82;21088;-73
2021/12/12 09:52:21;;;;;;;29.75;16.00;;;;;;;2.37;100.00;100911.06;1731608;82;21060;-73
2021/12/12 09:55:01;;;;;;;38.63;16.95;;;;;;;2.31;100.00;100899.76;1732376;82;21819;-73
2021/12/12 09:57:40;;;;;;;36.35;17.50;;;;;;;2.26;100.00;100901.45;1721273;82;21135;-72
2021/12/12 10:00:21;;;;;;;33.28;16.37;;;;;;;2.23;100.00;100893.64;1731573;82;21049;-72
2021/12/12 10:03:11;;;;;;;37.73;16.52;;;;;;;2.23;100.00;100896.23;1739510;82;21001;-73
2021/12/12 10:06:24;;;;;;;37.70;17.35;;;;;;;2.20;100.00;100885.79;1731297;82;21057;-73
2021/12/12 10:09:03;;;;;;;33.50;15.08;;;;;;;2.20;100.00;100894.88;1734506;82;21057;-72
2021/12/12 10:11:56;;;;;;;29.75;14.98;;;;;;;2.20;100.00;100894.88;1730841;82;21094;-73
2021/12/12 10:14:55;;;;;;;30.75;15.08;;;;;;;2.24;100.00;100887.56;1733474;82;21022;-73
2021/12/12 10:17:53;;;;;;;32.38;14.98;;;;;;;2.31;100.00;100893.26;1733323;82;21116;-70
2021/12/12 10:20:27;;;;;;;24.92;13.13;;;;;;;2.27;100.00;100890.62;1728582;82;21437;-73
2021/12/12 10:23:17;;;;;;;23.45;12.78;;;;;;;2.23;100.00;100896.23;1726946;82;21108;-72
2021/12/12 10:25:53;;;;;;;25.48;13.15;;;;;;;2.22;100.00;100902.27;1725095;82;21196;-73
2021/12/12 10:28:42;;;;;;;28.92;14.18;;;;;;;2.27;100.00;100904.91;1732828;82;21037;-72
2021/12/12 10:31:27;;;;;;;34.58;14.60;;;;;;;2.24;100.00;100901.86;1728562;82;21156;-73
2021/12/12 10:34:05;;;;;;;24.20;12.25;;;;;;;2.20;100.00;100900.08;1724107;82;21097;-72
2021/12/12 10:36:51;;;;;;;35.70;15.78;;;;;;;2.22;100.00;100900.97;1733708;82;21084;-72
2021/12/12 10:39:26;;;;;;;29.35;12.93;;;;;;;2.26;100.00;100898.85;1730993;82;21129;-72
2021/12/12 10:41:57;;;;;;;26.68;13.15;;;;;;;2.24;100.00;100897.97;1730066;82;21049;-71
2021/12/12 10:44:30;;;;;;;26.75;12.23;;;;;;;2.24;100.00;100897.97;1732703;82;21124;-72
2021/12/12 10:47:48;;;;;;;26.48;12.28;;;;;;;2.26;100.00;100901.45;1733927;82;21017;-71
2021/12/12 10:50:41;;;;;;;21.80;12.25;;;;;;;2.26;100.00;100897.55;1733614;82;21591;-72
2021/12/12 10:53:30;;;;;;;30.02;15.68;;;;;;;2.24;100.00;100901.86;1733384;82;21166;-73
2021/12/12 10:56:36;;;;;;;23.70;12.47;;;;;;;2.16;100.00;100887.91;1723103;82;21042;-71
2021/12/12 10:59:19;;;;;;;26.00;13.72;;;;;;;2.22;100.00;100888.41;1719555;82;21568;-73
2021/12/12 11:01:49;;;;;;;32.65;12.50;;;;;;;2.20;100.00;100880.59;1716965;82;21061;-71
2021/12/12 11:04:44;;;;;;;25.30;13.00;;;;;;;2.19;100.00;100882.77;1719774;82;21054;-71
2021/12/12 11:10:17;;;;;;;28.30;15.83;;;;;;;2.19;100.00;100874.97;1789664;79;22716;-72
2021/12/12 11:13:03;;;;;;;27.98;14.30;;;;;;;2.19;100.00;100876.27;1769889;80;22023;-71
2021/12/12 11:15:53;;;;;;;19.62;10.90;;;;;;;2.25;100.00;100877.59;1773191;80;21066;-73
2021/12/12 11:18:27;;;;;;;22.22;11.78;;;;;;;2.23;100.00;100876.74;1759311;80;21001;-72
2021/12/12 11:21:23;;;;;;;21.17;12.15;;;;;;;2.23;100.00;100871.55;1776683;80;21031;-72
2021/12/12 11:24:15;;;;;;;21.25;11.83;;;;;;;2.14;100.00;100867.56;1768462;80;21048;-71
2021/12/12 11:26:50;;;;;;;22.85;11.70;;;;;;;2.14;100.00;100867.56;1740746;80;21032;-73
2021/12/12 11:29:21;;;;;;;22.87;12.03;;;;;;;2.15;100.00;100869.30;1764651;80;21161;-72
2021/12/12 11:31:54;;;;;;;;;;;;;;;2.15;100.00;100855.44;1772904;80;21049;-72
2021/12/12 11:34:24;;;;;;;23.30;12.73;;;;;;;2.14;100.00;100858.47;1788606;78;20437;-73
2021/12/12 11:37:29;;;;;;;23.75;13.15;;;;;;;2.15;100.00;100861.50;1792370;78;21093;-74
2021/12/12 11:40:07;;;;;;;45.70;23.02;;;;;;;2.17;100.00;100862.82;1796324;78;21061;-72
2021/12/12 11:42:46;;;;;;;23.98;11.65;;;;;;;2.16;100.00;100844.17;1796319;78;21104;-74
2021/12/12 11:45:27;;;;;;;32.60;14.73;;;;;;;2.09;100.00;100843.23;1802845;78;21061;-72
2021/12/12 11:48:15;;;;;;;22.65;10.58;;;;;;;2.06;100.00;100851.02;1804531;78;21049;-72
2021/12/12 11:50:50;;;;;;;22.07;11.05;;;;;;;2.01;100.00;100840.58;1793972;78;21551;-70
2021/12/12 11:53:49;;;;;;;41.05;15.55;;;;;;;2.01;100.00;100840.58;1804801;78;21302;-72
2021/12/12 11:56:24;;;;;;;28.15;14.33;;;;;;;2.05;100.00;100846.69;1796821;78;21172;-72
2021/12/12 11:59:27;;;;;;;24.12;11.40;;;;;;;2.07;100.00;100842.35;1812275;78;21045;-73